Pagrindinis puslapis
METAR-TAF:

METAR-TAF

Oro uostai :

Porter County Municipal Airport

Valparaiso, Indiana, Jungtinės Amerikos Valstijos

platuma: 41-27-11N, ilguma: 086-59-53W, Aukštis: 234 m

Dabartinis oras

Ataskaita buvo paskelbta 56 minutes, ne 19:56 UTC
Vėjas 10 kt iš Vakarų/Pietvakarių
Temperatūra 17°C
Drėgmė 48%
Slėgis 1010 hPa
Matomumas: 16.1 km
Mažai debesys ne aukštis 4100 ft
Su prošvaistėmis ne aukštis 5500 ft

METAR: KVPZ 291956Z AUTO 24010KT 10SM FEW041 BKN055 17/06 A2983 RMK AO2 SLP101 T01670056

Laikas: 15:52 (20:52 UTC)


TAF: trūkstamas

Orai ataskaitas ir orų prognozės (METAR, TAF).

turimą stotys yra geltonos ir raudonos taškus žemėlapyje.

Perkelti pele per norėdami pamatyti stoties vardą.

Tada spustelėkite, norėdami matyti oro stebėjimo ir prognozės.

Norėdami pakeisti žemėlapį: spustelėkite ant žalios mygtukų su juodo kryžiaus žemyn,; žalią mygtuką su brūkšneliu, jei norite nutolinti; arba žalių rodyklių gretimoms žemėlapius.


METAR-TAF: